CheckWX is a tool to help pilots better visualize weather data.  It is not intended as a substitute for an official pre-flight weather briefing.

19:01:01 UTC

ETNH TAF
Hohn Airport
Germany
TAF ETNH 191620Z 1917/2005 17008KT 9999 NSW SCT050 TEMPO 1917/2121 19015G25KT 5000 TSRA BKN030CB PROB30 1917/1921 VRB20G35KT 2000 +TSRAGR BKN012 BKN030CB BECMG 1921/1923 22006KT 8000 NSW SCT010 BKN020 PROB30 1921/2005 24010G20KT 3000 SHRA BKN005 BKN015CB BY ETGL

Jun-19@
17:00 UTC

Jun-19 @ 17:00 UTC

Jun-19@
21:00 UTC

Jun-19 @ 21:00 UTC

TAF ETNH 191620Z 1917/2005 17008KT 9999 NSW SCT050
Wind
  • 170° at 8 KTS
Conditions
No significant weather
Cloud Levels
  • Scattered at 5,000' AGL

Jun-19@
17:00 UTC

Jun-19 @ 17:00 UTC

Jun-19@
21:00 UTC

Jun-19 @ 21:00 UTC

PROB30 1917/1921 VRB20G35KT 2000 +TSRAGR BKN012 BKN030CB

Probable - 30% Likelihood

Probable - 30% Likelihood during this time.

Wind
  • Variable at 20 KTS
  • {Gusting to 35 KTS
Conditions
Heavy Thunderstorm, Heavy Rain, Heavy Thunderstorm, Heavy Hail
Cloud Levels
  • Broken at 1,200' AGL
  • Broken at 3,000' AGL

Jun-19@
17:00 UTC

Jun-19 @ 17:00 UTC

Jun-21@
21:00 UTC

Jun-21 @ 21:00 UTC

TEMPO 1917/2121 19015G25KT 5000 TSRA BKN030CB

Temporary

Temporary Changes expected for less than half the time period

Wind
  • 190° at 15 KTS
  • {Gusting to 25 KTS
Conditions
Thunderstorm, Rain
Cloud Levels
  • Broken at 3,000' AGL

Jun-19@
21:00 UTC

Jun-19 @ 21:00 UTC

Jun-20@
05:00 UTC

Jun-20 @ 05:00 UTC

PROB30 1921/2005 24010G20KT 3000 SHRA BKN005 BKN015CB BY ETGL

Probable - 30% Likelihood

Probable - 30% Likelihood during this time.

Wind
  • 240° at 10 KTS
  • {Gusting to 20 KTS
Conditions
Rain
Cloud Levels
  • Broken at 500' AGL
  • Broken at 1,500' AGL

Jun-19@
21:00 UTC

Jun-19 @ 21:00 UTC

Jun-20@
05:00 UTC

Jun-20 @ 05:00 UTC

BECMG 1921/1923 22006KT 8000 NSW SCT010 BKN020

Becoming

Becoming Conditions expected by Wed, Jun 19, 2019 @ 23:00 UTC

Wind
  • 220° at 6 KTS
Conditions
No significant weather
Cloud Levels
  • Scattered at 1,000' AGL
  • Broken at 2,000' AGL